sensor_id;sensor_type;location;lat;lon;timestamp;pressure;altitude;pressure_sealevel;temperature;humidity
11712;BME280;5912;51.034;6.984;2022-12-08T00:00:48;99639.25;;;1.75;100.00
11712;BME280;5912;51.034;6.984;2022-12-08T00:03:13;99649.38;;;1.85;100.00
11712;BME280;5912;51.034;6.984;2022-12-08T00:05:46;99656.66;;;1.89;100.00
11712;BME280;5912;51.034;6.984;2022-12-08T00:08:30;99649.84;;;1.88;100.00
11712;BME280;5912;51.034;6.984;2022-12-08T00:11:15;99656.66;;;1.89;100.00
11712;BME280;5912;51.034;6.984;2022-12-08T00:13:41;99639.50;;;1.88;100.00
11712;BME280;5912;51.034;6.984;2022-12-08T00:16:07;99635.81;;;1.83;100.00
11712;BME280;5912;51.034;6.984;2022-12-08T00:18:33;99649.84;;;1.88;100.00
11712;BME280;5912;51.034;6.984;2022-12-08T00:20:59;99636.13;;;1.88;100.00
11712;BME280;5912;51.034;6.984;2022-12-08T00:23:24;99638.69;;;1.88;100.00
11712;BME280;5912;51.034;6.984;2022-12-08T00:25:50;99634.94;;;1.90;100.00
11712;BME280;5912;51.034;6.984;2022-12-08T00:28:15;99638.78;;;1.94;100.00
11712;BME280;5912;51.034;6.984;2022-12-08T00:30:41;99625.06;;;1.94;100.00
11712;BME280;5912;51.034;6.984;2022-12-08T00:33:07;99633.72;;;2.01;100.00
11712;BME280;5912;51.034;6.984;2022-12-08T00:35:32;99631.78;;;2.03;100.00
11712;BME280;5912;51.034;6.984;2022-12-08T00:37:58;99635.00;;;2.05;100.00
11712;BME280;5912;51.034;6.984;2022-12-08T00:40:23;99622.69;;;2.07;100.00
11712;BME280;5912;51.034;6.984;2022-12-08T00:42:48;99625.91;;;2.09;100.00
11712;BME280;5912;51.034;6.984;2022-12-08T00:45:14;99620.38;;;2.12;100.00
11712;BME280;5912;51.034;6.984;2022-12-08T00:47:39;99619.41;;;2.13;100.00
11712;BME280;5912;51.034;6.984;2022-12-08T00:50:05;99615.00;;;2.13;100.00
11712;BME280;5912;51.034;6.984;2022-12-08T00:52:31;99608.03;;;2.14;100.00
11712;BME280;5912;51.034;6.984;2022-12-08T00:54:57;99606.09;;;2.16;100.00
11712;BME280;5912;51.034;6.984;2022-12-08T00:57:22;99601.72;;;2.16;100.00
11712;BME280;5912;51.034;6.984;2022-12-08T00:59:47;99602.50;;;2.17;100.00
11712;BME280;5912;51.034;6.984;2022-12-08T01:02:12;99604.75;;;2.20;100.00
11712;BME280;5912;51.034;6.984;2022-12-08T01:04:38;99500.31;;;1.60;100.00
11712;BME280;5912;51.034;6.984;2022-12-08T01:07:03;99591.34;;;2.16;100.00
11712;BME280;5912;51.034;6.984;2022-12-08T01:09:29;99592.16;;;2.17;100.00
11712;BME280;5912;51.034;6.984;2022-12-08T01:11:54;99587.94;;;2.16;100.00
11712;BME280;5912;51.034;6.984;2022-12-08T01:14:20;99589.56;;;2.17;100.00
11712;BME280;5912;51.034;6.984;2022-12-08T01:16:45;99592.16;;;2.17;100.00
11712;BME280;5912;51.034;6.984;2022-12-08T01:19:12;99588.91;;;2.15;100.00
11712;BME280;5912;51.034;6.984;2022-12-08T01:21:39;99594.38;;;2.20;100.00
11712;BME280;5912;51.034;6.984;2022-12-08T01:24:05;99598.78;;;2.19;100.00
11712;BME280;5912;51.034;6.984;2022-12-08T01:26:30;99590.19;;;2.19;100.00
11712;BME280;5912;51.034;6.984;2022-12-08T01:28:55;99597.59;;;2.22;100.00
11712;BME280;5912;51.034;6.984;2022-12-08T01:31:21;99590.00;;;2.20;100.00
11712;BME280;5912;51.034;6.984;2022-12-08T01:33:47;99600.91;;;2.16;100.00
11712;BME280;5912;51.034;6.984;2022-12-08T01:36:24;99599.63;;;2.12;100.00
11712;BME280;5912;51.034;6.984;2022-12-08T01:38:50;99597.03;;;2.12;100.00
11712;BME280;5912;51.034;6.984;2022-12-08T01:41:18;99592.59;;;2.20;100.00
11712;BME280;5912;51.034;6.984;2022-12-08T01:46:33;99598.88;;;2.26;100.00
11712;BME280;5912;51.034;6.984;2022-12-08T01:49:04;99596.28;;;2.26;100.00
11712;BME280;5912;51.034;6.984;2022-12-08T01:51:34;99589.13;;;2.28;100.00
11712;BME280;5912;51.034;6.984;2022-12-08T01:54:04;99593.97;;;2.31;100.00
11712;BME280;5912;51.034;6.984;2022-12-08T01:57:07;99591.38;;;2.31;100.00
11712;BME280;5912;51.034;6.984;2022-12-08T01:59:36;99588.94;;;2.29;100.00
11712;BME280;5912;51.034;6.984;2022-12-08T02:02:03;99589.75;;;2.30;100.00
11712;BME280;5912;51.034;6.984;2022-12-08T02:04:28;99580.63;;;2.19;100.00
11712;BME280;5912;51.034;6.984;2022-12-08T02:06:54;99579.19;;;2.17;100.00
11712;BME280;5912;51.034;6.984;2022-12-08T02:09:20;99578.41;;;2.16;100.00
11712;BME280;5912;51.034;6.984;2022-12-08T02:11:46;99580.16;;;2.16;100.00
11712;BME280;5912;51.034;6.984;2022-12-08T02:14:39;99575.94;;;2.15;100.00
11712;BME280;5912;51.034;6.984;2022-12-08T02:20:24;99573.34;;;2.15;100.00
11712;BME280;5912;51.034;6.984;2022-12-08T02:24:01;99564.81;;;2.14;100.00
11712;BME280;5912;51.034;6.984;2022-12-08T02:32:05;99559.44;;;2.16;100.00
11712;BME280;5912;51.034;6.984;2022-12-08T02:34:40;99558.28;;;2.18;100.00
11712;BME280;5912;51.034;6.984;2022-12-08T02:37:22;99555.84;;;2.17;100.00
11712;BME280;5912;51.034;6.984;2022-12-08T02:40:12;99523.28;;;2.00;100.00
11712;BME280;5912;51.034;6.984;2022-12-08T02:46:01;99546.47;;;2.16;100.00
11712;BME280;5912;51.034;6.984;2022-12-08T02:48:28;99540.41;;;2.23;100.00
11712;BME280;5912;51.034;6.984;2022-12-08T02:50:54;99534.09;;;2.26;100.00
11712;BME280;5912;51.034;6.984;2022-12-08T02:53:19;99526.31;;;2.26;100.00
11712;BME280;5912;51.034;6.984;2022-12-08T02:55:56;99514.19;;;2.18;100.00
11712;BME280;5912;51.034;6.984;2022-12-08T03:01:43;99521.72;;;2.28;100.00
11712;BME280;5912;51.034;6.984;2022-12-08T03:07:26;99515.56;;;2.29;100.00
11712;BME280;5912;51.034;6.984;2022-12-08T03:10:07;99498.41;;;2.28;100.00
11712;BME280;5912;51.034;6.984;2022-12-08T03:12:55;99500.03;;;2.29;100.00
11712;BME280;5912;51.034;6.984;2022-12-08T03:15:24;99489.38;;;2.24;100.00
11712;BME280;5912;51.034;6.984;2022-12-08T03:17:52;99488.19;;;2.26;100.00
11712;BME280;5912;51.034;6.984;2022-12-08T03:20:22;99499.03;;;2.30;100.00
11712;BME280;5912;51.034;6.984;2022-12-08T03:22:51;99493.84;;;2.30;100.00
11712;BME280;5912;51.034;6.984;2022-12-08T03:25:20;99490.44;;;2.29;100.00
11712;BME280;5912;51.034;6.984;2022-12-08T03:27:46;99483.28;;;2.31;100.00
11712;BME280;5912;51.034;6.984;2022-12-08T03:30:12;99480.25;;;2.28;100.00
11712;BME280;5912;51.034;6.984;2022-12-08T03:35:13;99473.00;;;2.23;100.00
11712;BME280;5912;51.034;6.984;2022-12-08T03:37:39;99489.00;;;2.27;100.00
11712;BME280;5912;51.034;6.984;2022-12-08T03:40:09;99478.28;;;2.30;100.00
11712;BME280;5912;51.034;6.984;2022-12-08T03:42:35;99482.22;;;2.26;100.00
11712;BME280;5912;51.034;6.984;2022-12-08T03:45:00;99478.00;;;2.25;100.00
11712;BME280;5912;51.034;6.984;2022-12-08T03:47:25;99481.41;;;2.25;100.00
11712;BME280;5912;51.034;6.984;2022-12-08T03:49:51;99477.38;;;2.23;100.00
11712;BME280;5912;51.034;6.984;2022-12-08T03:52:16;99471.88;;;2.26;100.00
11712;BME280;5912;51.034;6.984;2022-12-08T03:54:41;99460.22;;;2.22;99.82
11712;BME280;5912;51.034;6.984;2022-12-08T03:57:07;99453.34;;;2.14;99.32
11712;BME280;5912;51.034;6.984;2022-12-08T03:59:32;99459.59;;;2.20;100.00
11712;BME280;5912;51.034;6.984;2022-12-08T04:01:57;99464.41;;;2.23;99.95
11712;BME280;5912;51.034;6.984;2022-12-08T04:04:23;99456.63;;;2.23;100.00
11712;BME280;5912;51.034;6.984;2022-12-08T04:06:48;99458.91;;;2.26;100.00
11712;BME280;5912;51.034;6.984;2022-12-08T04:09:14;99447.00;;;2.17;100.00
11712;BME280;5912;51.034;6.984;2022-12-08T04:11:40;99447.72;;;2.25;99.96
11712;BME280;5912;51.034;6.984;2022-12-08T04:14:06;99432.16;;;2.11;99.47
11712;BME280;5912;51.034;6.984;2022-12-08T04:16:31;99450.75;;;2.29;100.00
11712;BME280;5912;51.034;6.984;2022-12-08T04:18:56;99449.78;;;2.30;100.00
11712;BME280;5912;51.034;6.984;2022-12-08T04:21:22;99435.56;;;2.26;100.00
11712;BME280;5912;51.034;6.984;2022-12-08T04:23:47;99437.97;;;2.27;100.00
11712;BME280;5912;51.034;6.984;2022-12-08T04:26:13;99420.13;;;2.18;100.00
11712;BME280;5912;51.034;6.984;2022-12-08T04:28:38;99427.44;;;2.29;100.00
11712;BME280;5912;51.034;6.984;2022-12-08T04:31:04;99431.00;;;2.28;100.00
11712;BME280;5912;51.034;6.984;2022-12-08T04:33:30;99429.84;;;2.30;100.00
11712;BME280;5912;51.034;6.984;2022-12-08T04:35:55;99425.97;;;2.26;100.00
11712;BME280;5912;51.034;6.984;2022-12-08T04:38:22;99422.44;;;2.27;100.00
11712;BME280;5912;51.034;6.984;2022-12-08T04:40:47;99423.84;;;2.30;100.00
11712;BME280;5912;51.034;6.984;2022-12-08T04:43:12;99420.81;;;2.26;100.00
11712;BME280;5912;51.034;6.984;2022-12-08T04:45:39;99419.03;;;2.27;100.00
11712;BME280;5912;51.034;6.984;2022-12-08T04:48:05;99417.25;;;2.27;100.00
11712;BME280;5912;51.034;6.984;2022-12-08T04:50:30;99423.22;;;2.28;100.00
11712;BME280;5912;51.034;6.984;2022-12-08T04:52:56;99401.34;;;2.16;100.00
11712;BME280;5912;51.034;6.984;2022-12-08T04:55:21;99415.16;;;2.23;100.00
11712;BME280;5912;51.034;6.984;2022-12-08T04:57:47;99421.97;;;2.24;100.00
11712;BME280;5912;51.034;6.984;2022-12-08T05:00:12;99414.75;;;2.19;100.00
11712;BME280;5912;51.034;6.984;2022-12-08T05:02:38;99418.75;;;2.22;100.00
11712;BME280;5912;51.034;6.984;2022-12-08T05:05:04;99413.13;;;2.18;100.00
11712;BME280;5912;51.034;6.984;2022-12-08T05:07:30;99406.34;;;2.17;100.00
11712;BME280;5912;51.034;6.984;2022-12-08T05:09:55;99409.09;;;2.16;100.00
11712;BME280;5912;51.034;6.984;2022-12-08T05:12:20;99376.69;;;1.91;100.00
11712;BME280;5912;51.034;6.984;2022-12-08T05:14:46;99405.06;;;2.13;100.00
11712;BME280;5912;51.034;6.984;2022-12-08T05:17:12;99407.16;;;2.18;100.00
11712;BME280;5912;51.034;6.984;2022-12-08T05:19:37;99415.09;;;2.16;100.00
11712;BME280;5912;51.034;6.984;2022-12-08T05:22:03;99403.94;;;2.16;100.00
11712;BME280;5912;51.034;6.984;2022-12-08T05:24:28;99399.72;;;2.15;100.00
11712;BME280;5912;51.034;6.984;2022-12-08T05:26:54;99402.75;;;2.18;100.00
11712;BME280;5912;51.034;6.984;2022-12-08T05:29:19;99387.03;;;2.05;100.00
11712;BME280;5912;51.034;6.984;2022-12-08T05:31:44;99384.09;;;2.08;100.00
11712;BME280;5912;51.034;6.984;2022-12-08T05:34:10;99395.16;;;2.17;100.00
11712;BME280;5912;51.034;6.984;2022-12-08T05:39:41;99397.56;;;2.18;100.00
11712;BME280;5912;51.034;6.984;2022-12-08T05:42:06;99396.78;;;2.18;100.00
11712;BME280;5912;51.034;6.984;2022-12-08T05:44:31;99367.47;;;2.03;100.00
11712;BME280;5912;51.034;6.984;2022-12-08T05:46:57;99389.97;;;2.17;100.00
11712;BME280;5912;51.034;6.984;2022-12-08T05:49:22;99393.56;;;2.16;100.00
11712;BME280;5912;51.034;6.984;2022-12-08T05:51:47;99377.56;;;2.12;100.00
11712;BME280;5912;51.034;6.984;2022-12-08T05:54:13;99349.41;;;1.95;100.00
11712;BME280;5912;51.034;6.984;2022-12-08T05:56:38;99389.78;;;2.18;100.00
11712;BME280;5912;51.034;6.984;2022-12-08T05:59:05;99382.47;;;2.22;100.00
11712;BME280;5912;51.034;6.984;2022-12-08T06:01:31;99360.31;;;2.05;100.00
11712;BME280;5912;51.034;6.984;2022-12-08T06:03:58;99369.59;;;2.14;100.00
11712;BME280;5912;51.034;6.984;2022-12-08T06:06:23;99374.41;;;2.17;100.00
11712;BME280;5912;51.034;6.984;2022-12-08T06:08:49;99357.72;;;2.05;100.00
11712;BME280;5912;51.034;6.984;2022-12-08T06:11:19;99378.81;;;2.16;100.00
11712;BME280;5912;51.034;6.984;2022-12-08T06:13:45;99386.41;;;2.18;100.00
11712;BME280;5912;51.034;6.984;2022-12-08T06:16:10;99351.91;;;2.03;100.00
11712;BME280;5912;51.034;6.984;2022-12-08T06:18:36;99383.19;;;2.16;100.00
11712;BME280;5912;51.034;6.984;2022-12-08T06:21:06;99374.41;;;2.17;100.00
11712;BME280;5912;51.034;6.984;2022-12-08T06:23:32;99374.78;;;2.14;100.00
11712;BME280;5912;51.034;6.984;2022-12-08T06:26:02;99377.81;;;2.17;100.00
11712;BME280;5912;51.034;6.984;2022-12-08T06:28:29;99377.38;;;2.14;100.00
11712;BME280;5912;51.034;6.984;2022-12-08T06:30:54;99363.28;;;2.02;100.00
11712;BME280;5912;51.034;6.984;2022-12-08T06:33:19;99392.28;;;2.12;100.00
11712;BME280;5912;51.034;6.984;2022-12-08T06:35:45;99388.09;;;2.11;100.00
11712;BME280;5912;51.034;6.984;2022-12-08T06:38:10;99384.09;;;2.08;100.00
11712;BME280;5912;51.034;6.984;2022-12-08T06:40:35;99374.69;;;2.07;100.00
11712;BME280;5912;51.034;6.984;2022-12-08T06:43:01;99380.88;;;2.06;100.00
11712;BME280;5912;51.034;6.984;2022-12-08T06:45:26;99364.59;;;1.98;100.00
11712;BME280;5912;51.034;6.984;2022-12-08T06:47:51;99370.41;;;2.00;100.00
11712;BME280;5912;51.034;6.984;2022-12-08T06:50:16;99380.41;;;2.03;100.00
11712;BME280;5912;51.034;6.984;2022-12-08T06:52:42;99374.00;;;1.99;100.00
11712;BME280;5912;51.034;6.984;2022-12-08T06:55:08;99370.97;;;1.95;100.00
11712;BME280;5912;51.034;6.984;2022-12-08T06:57:33;99368.19;;;1.97;100.00
11712;BME280;5912;51.034;6.984;2022-12-08T06:59:58;99385.34;;;1.98;100.00
11712;BME280;5912;51.034;6.984;2022-12-08T07:02:48;99382.75;;;1.98;100.00
11712;BME280;5912;51.034;6.984;2022-12-08T07:05:14;99375.31;;;1.95;100.00
11712;BME280;5912;51.034;6.984;2022-12-08T07:07:39;99386.97;;;1.99;100.00
11712;BME280;5912;51.034;6.984;2022-12-08T07:10:05;99384.69;;;1.96;100.00
11712;BME280;5912;51.034;6.984;2022-12-08T07:12:44;99391.31;;;1.98;100.00
11712;BME280;5912;51.034;6.984;2022-12-08T07:15:09;99361.75;;;1.78;100.00
11712;BME280;5912;51.034;6.984;2022-12-08T07:17:34;99395.88;;;1.96;100.00
11712;BME280;5912;51.034;6.984;2022-12-08T07:20:00;99395.06;;;1.96;100.00
11712;BME280;5912;51.034;6.984;2022-12-08T07:22:25;99392.81;;;1.93;100.00
11712;BME280;5912;51.034;6.984;2022-12-08T07:24:50;99382.72;;;1.83;100.00
11712;BME280;5912;51.034;6.984;2022-12-08T07:27:16;99392.41;;;1.89;100.00
11712;BME280;5912;51.034;6.984;2022-12-08T07:29:41;99402.41;;;1.92;100.00
11712;BME280;5912;51.034;6.984;2022-12-08T07:32:07;99400.59;;;1.93;100.00
11712;BME280;5912;51.034;6.984;2022-12-08T07:34:32;99392.81;;;1.93;100.00
11712;BME280;5912;51.034;6.984;2022-12-08T07:36:57;99397.22;;;1.92;100.00
11712;BME280;5912;51.034;6.984;2022-12-08T07:39:23;99357.00;;;1.67;100.00
11712;BME280;5912;51.034;6.984;2022-12-08T07:41:48;99394.38;;;1.87;100.00
11712;BME280;5912;51.034;6.984;2022-12-08T07:44:13;99390.59;;;1.90;100.00
11712;BME280;5912;51.034;6.984;2022-12-08T07:46:39;99400.00;;;1.91;100.00
11712;BME280;5912;51.034;6.984;2022-12-08T07:49:04;99386.41;;;1.89;100.00
11712;BME280;5912;51.034;6.984;2022-12-08T07:51:29;99395.19;;;1.88;100.00
11712;BME280;5912;51.034;6.984;2022-12-08T07:53:55;99375.22;;;1.74;100.00
11712;BME280;5912;51.034;6.984;2022-12-08T07:56:21;99389.38;;;1.86;100.00
11712;BME280;5912;51.034;6.984;2022-12-08T07:58:46;99393.91;;;1.84;100.00
11712;BME280;5912;51.034;6.984;2022-12-08T08:01:38;99403.09;;;1.86;100.00
11712;BME280;5912;51.034;6.984;2022-12-08T08:04:04;99400.50;;;1.86;100.00
11712;BME280;5912;51.034;6.984;2022-12-08T08:06:31;99400.69;;;1.85;100.00
11712;BME280;5912;51.034;6.984;2022-12-08T08:08:57;99381.56;;;1.71;100.00
11712;BME280;5912;51.034;6.984;2022-12-08T08:11:22;99407.03;;;1.82;100.00
11712;BME280;5912;51.034;6.984;2022-12-08T08:13:49;99401.03;;;1.82;100.00
11712;BME280;5912;51.034;6.984;2022-12-08T08:16:14;99399.97;;;1.76;100.00
11712;BME280;5912;51.034;6.984;2022-12-08T08:18:41;99399.53;;;1.73;100.00
11712;BME280;5912;51.034;6.984;2022-12-08T08:21:07;99399.97;;;1.76;100.00
11712;BME280;5912;51.034;6.984;2022-12-08T08:23:33;99397.94;;;1.72;100.00
11712;BME280;5912;51.034;6.984;2022-12-08T08:26:00;99399.25;;;1.68;100.00
11712;BME280;5912;51.034;6.984;2022-12-08T08:28:26;99374.25;;;1.60;100.00
11712;BME280;5912;51.034;6.984;2022-12-08T08:30:52;99383.44;;;1.63;100.00
11712;BME280;5912;51.034;6.984;2022-12-08T08:33:18;99382.47;;;1.64;100.00
11712;BME280;5912;51.034;6.984;2022-12-08T08:35:43;99397.56;;;1.75;100.00
11712;BME280;5912;51.034;6.984;2022-12-08T08:38:09;99390.50;;;1.69;100.00
11712;BME280;5912;51.034;6.984;2022-12-08T08:40:34;99399.28;;;1.82;100.00
11712;BME280;5912;51.034;6.984;2022-12-08T08:43:00;99406.22;;;1.82;100.00
11712;BME280;5912;51.034;6.984;2022-12-08T08:45:26;99336.38;;;1.44;100.00
11712;BME280;5912;51.034;6.984;2022-12-08T08:47:51;99397.78;;;1.88;100.00
11712;BME280;5912;51.034;6.984;2022-12-08T08:50:17;99403.91;;;1.87;100.00
11712;BME280;5912;51.034;6.984;2022-12-08T08:52:42;99411.16;;;1.91;100.00
11712;BME280;5912;51.034;6.984;2022-12-08T08:55:07;99378.91;;;1.79;100.00
11712;BME280;5912;51.034;6.984;2022-12-08T08:57:33;99416.44;;;1.98;100.00
11712;BME280;5912;51.034;6.984;2022-12-08T08:59:58;99406.50;;;2.01;100.00
11712;BME280;5912;51.034;6.984;2022-12-08T09:02:23;99402.75;;;2.04;100.00
11712;BME280;5912;51.034;6.984;2022-12-08T09:04:49;99403.38;;;2.06;100.00
11712;BME280;5912;51.034;6.984;2022-12-08T09:07:15;99404.03;;;2.08;100.00
11712;BME280;5912;51.034;6.984;2022-12-08T09:09:41;99399.09;;;2.13;100.00
11712;BME280;5912;51.034;6.984;2022-12-08T09:12:06;99396.78;;;2.18;100.00
11712;BME280;5912;51.034;6.984;2022-12-08T09:14:32;99400.34;;;2.17;100.00
11712;BME280;5912;51.034;6.984;2022-12-08T09:16:57;99400.25;;;2.25;100.00
11712;BME280;5912;51.034;6.984;2022-12-08T09:19:22;99397.66;;;2.25;100.00
11712;BME280;5912;51.034;6.984;2022-12-08T09:21:48;99402.09;;;2.31;100.00
11712;BME280;5912;51.034;6.984;2022-12-08T09:24:13;99408.19;;;2.38;100.00
11712;BME280;5912;51.034;6.984;2022-12-08T09:26:42;99402.91;;;2.46;100.00
11712;BME280;5912;51.034;6.984;2022-12-08T09:29:09;99407.53;;;2.50;100.00
11712;BME280;5912;51.034;6.984;2022-12-08T09:31:34;99408.81;;;2.54;100.00
11712;BME280;5912;51.034;6.984;2022-12-08T09:34:00;99406.41;;;2.53;100.00
11712;BME280;5912;51.034;6.984;2022-12-08T09:36:25;99404.03;;;2.58;100.00
11712;BME280;5912;51.034;6.984;2022-12-08T09:38:51;99403.66;;;2.61;100.00
11712;BME280;5912;51.034;6.984;2022-12-08T09:46:59;99365.78;;;2.45;99.62
11712;BME280;5912;51.034;6.984;2022-12-08T09:49:35;99384.19;;;2.65;100.00
11712;BME280;5912;51.034;6.984;2022-12-08T09:52:02;99397.03;;;2.73;98.79
11712;BME280;5912;51.034;6.984;2022-12-08T09:54:33;99398.44;;;2.75;98.19
11712;BME280;5912;51.034;6.984;2022-12-08T09:57:04;99396.94;;;2.81;97.71
11712;BME280;5912;51.034;6.984;2022-12-08T09:59:32;99391.56;;;2.82;98.56
11712;BME280;5912;51.034;6.984;2022-12-08T10:01:59;99392.38;;;2.83;97.76
11712;BME280;5912;51.034;6.984;2022-12-08T10:04:30;99387.59;;;2.86;97.59
11712;BME280;5912;51.034;6.984;2022-12-08T10:09:59;99392.06;;;2.92;97.74
11712;BME280;5912;51.034;6.984;2022-12-08T10:12:33;99383.66;;;2.90;97.49
11712;BME280;5912;51.034;6.984;2022-12-08T10:15:17;99388.25;;;2.74;96.63
11712;BME280;5912;51.034;6.984;2022-12-08T10:17:49;99392.59;;;2.67;96.62
11712;BME280;5912;51.034;6.984;2022-12-08T10:20:18;99388.09;;;2.61;97.00
11712;BME280;5912;51.034;6.984;2022-12-08T10:22:45;99389.84;;;2.54;95.69
11712;BME280;5912;51.034;6.984;2022-12-08T10:25:20;99390.13;;;2.44;95.61
11712;BME280;5912;51.034;6.984;2022-12-08T10:27:49;99384.84;;;2.38;95.88
11712;BME280;5912;51.034;6.984;2022-12-08T10:30:18;99373.94;;;2.42;97.37
11712;BME280;5912;51.034;6.984;2022-12-08T10:32:47;99377.16;;;2.44;97.26
11712;BME280;5912;51.034;6.984;2022-12-08T10:35:15;99370.78;;;2.47;96.10
11712;BME280;5912;51.034;6.984;2022-12-08T10:37:54;99334.41;;;2.19;96.75
11712;BME280;5912;51.034;6.984;2022-12-08T10:40:21;99368.75;;;2.42;96.57
11712;BME280;5912;51.034;6.984;2022-12-08T10:42:50;99372.78;;;2.45;97.66
11712;BME280;5912;51.034;6.984;2022-12-08T10:48:21;99372.25;;;2.49;97.47
11712;BME280;5912;51.034;6.984;2022-12-08T10:53:18;99367.50;;;2.53;97.90
11712;BME280;5912;51.034;6.984;2022-12-08T10:55:47;99368.53;;;2.58;97.71
11712;BME280;5912;51.034;6.984;2022-12-08T10:58:42;99359.25;;;2.64;98.01
11712;BME280;5912;51.034;6.984;2022-12-08T11:01:16;99356.69;;;2.70;97.88
11712;BME280;5912;51.034;6.984;2022-12-08T11:06:24;99344.16;;;2.74;95.68
11712;BME280;5912;51.034;6.984;2022-12-08T11:08:58;99341.94;;;2.71;95.40
11712;BME280;5912;51.034;6.984;2022-12-08T11:14:07;99340.97;;;2.72;95.84
11712;BME280;5912;51.034;6.984;2022-12-08T11:16:34;99340.34;;;2.70;96.59
11712;BME280;5912;51.034;6.984;2022-12-08T11:19:03;99329.97;;;2.70;96.59
11712;BME280;5912;51.034;6.984;2022-12-08T11:21:36;99335.59;;;2.73;96.70
11712;BME280;5912;51.034;6.984;2022-12-08T11:26:40;99332.81;;;2.75;96.39
11712;BME280;5912;51.034;6.984;2022-12-08T11:29:10;99311.38;;;2.66;95.73
11712;BME280;5912;51.034;6.984;2022-12-08T11:31:43;99330.03;;;2.76;96.09
11712;BME280;5912;51.034;6.984;2022-12-08T11:34:19;99323.16;;;2.69;95.27
11712;BME280;5912;51.034;6.984;2022-12-08T11:36:48;99318.78;;;2.69;95.44
11712;BME280;5912;51.034;6.984;2022-12-08T11:39:14;99298.75;;;2.63;95.59
11712;BME280;5912;51.034;6.984;2022-12-08T11:41:41;99312.66;;;2.77;95.37
11712;BME280;5912;51.034;6.984;2022-12-08T11:44:28;99313.16;;;2.87;97.07
11712;BME280;5912;51.034;6.984;2022-12-08T11:49:41;99308.50;;;3.03;96.07
11712;BME280;5912;51.034;6.984;2022-12-08T11:52:28;99280.03;;;2.89;96.01
11712;BME280;5912;51.034;6.984;2022-12-08T11:55:03;99298.31;;;3.02;95.61
11712;BME280;5912;51.034;6.984;2022-12-08T11:57:31;99302.06;;;2.99;94.62
11712;BME280;5912;51.034;6.984;2022-12-08T11:59:57;99289.03;;;2.93;94.63
11712;BME280;5912;51.034;6.984;2022-12-08T12:02:25;99300.47;;;2.98;94.88
11712;BME280;5912;51.034;6.984;2022-12-08T12:08:40;99251.88;;;2.86;96.21
11712;BME280;5912;51.034;6.984;2022-12-08T12:13:57;99288.16;;;3.07;93.31
11712;BME280;5912;51.034;6.984;2022-12-08T12:19:19;99267.69;;;2.91;93.37
11712;BME280;5912;51.034;6.984;2022-12-08T12:21:54;99287.13;;;3.01;93.52
11712;BME280;5912;51.034;6.984;2022-12-08T12:24:30;99288.78;;;3.09;93.73
11712;BME280;5912;51.034;6.984;2022-12-08T12:29:38;99287.44;;;3.13;92.81
11712;BME280;5912;51.034;6.984;2022-12-08T12:32:09;99278.00;;;3.12;92.46
11712;BME280;5912;51.034;6.984;2022-12-08T12:34:42;99282.81;;;3.15;92.14
11712;BME280;5912;51.034;6.984;2022-12-08T12:37:16;99283.69;;;3.22;92.29
11712;BME280;5912;51.034;6.984;2022-12-08T12:42:40;99284.34;;;3.31;93.03
11712;BME280;5912;51.034;6.984;2022-12-08T12:45:25;99280.31;;;3.28;92.01
11712;BME280;5912;51.034;6.984;2022-12-08T12:56:02;99273.88;;;3.52;92.04
11712;BME280;5912;51.034;6.984;2022-12-08T13:03:34;99269.03;;;3.76;92.15
11712;BME280;5912;51.034;6.984;2022-12-08T13:06:00;99274.88;;;3.85;92.16
11712;BME280;5912;51.034;6.984;2022-12-08T13:08:26;99277.28;;;3.86;91.73
11712;BME280;5912;51.034;6.984;2022-12-08T13:13:26;99262.59;;;3.72;90.25
11712;BME280;5912;51.034;6.984;2022-12-08T13:16:03;99275.97;;;3.69;89.92
11712;BME280;5912;51.034;6.984;2022-12-08T13:18:39;99260.16;;;3.58;90.50
11712;BME280;5912;51.034;6.984;2022-12-08T13:26:20;99264.91;;;3.54;91.55
11712;BME280;5912;51.034;6.984;2022-12-08T13:31:59;99257.13;;;3.54;91.24
11712;BME280;5912;51.034;6.984;2022-12-08T13:34:53;99257.91;;;3.48;90.49
11712;BME280;5912;51.034;6.984;2022-12-08T13:37:41;99254.69;;;3.46;89.52
11712;BME280;5912;51.034;6.984;2022-12-08T13:40:15;99243.22;;;3.34;89.68
11712;BME280;5912;51.034;6.984;2022-12-08T13:42:53;99255.03;;;3.37;89.44
11712;BME280;5912;51.034;6.984;2022-12-08T13:45:27;99254.59;;;3.33;90.12
11712;BME280;5912;51.034;6.984;2022-12-08T13:48:01;99251.38;;;3.31;89.55
11712;BME280;5912;51.034;6.984;2022-12-08T13:50:30;99254.97;;;3.30;89.54
11712;BME280;5912;51.034;6.984;2022-12-08T13:53:04;99249.56;;;3.25;88.21
11712;BME280;5912;51.034;6.984;2022-12-08T13:55:47;99248.97;;;3.30;88.37
11712;BME280;5912;51.034;6.984;2022-12-08T13:58:31;99246.75;;;3.27;88.46
11712;BME280;5912;51.034;6.984;2022-12-08T14:03:45;99241.53;;;3.20;89.29
11712;BME280;5912;51.034;6.984;2022-12-08T14:06:28;99252.53;;;3.22;89.72
11712;BME280;5912;51.034;6.984;2022-12-08T14:08:57;99249.69;;;3.17;89.32
11712;BME280;5912;51.034;6.984;2022-12-08T14:12:06;99246.13;;;3.18;89.33
11712;BME280;5912;51.034;6.984;2022-12-08T14:14:41;99242.47;;;3.13;90.47
11712;BME280;5912;51.034;6.984;2022-12-08T14:17:12;99261.47;;;3.13;89.92
11712;BME280;5912;51.034;6.984;2022-12-08T14:19:42;99256.03;;;3.08;87.62
11712;BME280;5912;51.034;6.984;2022-12-08T14:22:12;99261.38;;;3.00;87.51
11712;BME280;5912;51.034;6.984;2022-12-08T14:24:39;99258.53;;;2.95;89.41
11712;BME280;5912;51.034;6.984;2022-12-08T14:27:06;99255.06;;;2.88;89.35
11712;BME280;5912;51.034;6.984;2022-12-08T14:32:01;99250.19;;;2.78;90.00
11712;BME280;5912;51.034;6.984;2022-12-08T14:34:26;99245.56;;;2.74;88.80
11712;BME280;5912;51.034;6.984;2022-12-08T14:36:52;99249.16;;;2.73;89.11
11712;BME280;5912;51.034;6.984;2022-12-08T14:39:19;99246.94;;;2.70;89.49
11712;BME280;5912;51.034;6.984;2022-12-08T14:42:00;99233.25;;;2.55;90.02
11712;BME280;5912;51.034;6.984;2022-12-08T14:45:01;99258.84;;;2.64;89.88
11712;BME280;5912;51.034;6.984;2022-12-08T14:47:31;99267.81;;;2.62;90.02
11712;BME280;5912;51.034;6.984;2022-12-08T14:49:57;99261.38;;;2.58;88.77
11712;BME280;5912;51.034;6.984;2022-12-08T14:52:23;99262.75;;;2.54;89.21
11712;BME280;5912;51.034;6.984;2022-12-08T14:54:50;99265.09;;;2.49;87.94
11712;BME280;5912;51.034;6.984;2022-12-08T14:57:16;99227.94;;;2.21;88.02
11712;BME280;5912;51.034;6.984;2022-12-08T14:59:42;99265.84;;;2.43;88.55